• Join FlightAware (Why Join?)
  • Login
  • US Flag 
02:00PM EDT


 

Airport Tracker/Info


-or-


 

Live Flight TrackerFlight Track Log ✈ SWA311 ✈ 08-Nov-2013 ✈ KSAN - KSJC

Flight Track Log - Related Links

Times and Time Zones

All times are in EST time to prevent confusion due to time zone crossing. See the SWA311 flight status page for this flight to view local times or setup timezone preferences in your user account.

Time Position Orientation Groundspeed Altitude Reporting Facility
EST Latitude Longitude Course Direction KTS MPH feet Rate Location/Type
09:42AM 32.7447 -117.2203 304° West 190 219 1,500  Level Los Angeles Center
09:43AM 32.7783 -117.2789 304° West 205 236 4,200 3,420 Climbing Los Angeles Center
09:44AM 32.8219 -117.3519 305° West 245 282 8,500 4,140 Climbing Los Angeles Center
09:45AM 32.8633 -117.4328 301° West 272 313 12,800 3,960 Climbing Los Angeles Center
09:46AM 32.9450 -117.5250 317° Northwest 329 379 16,700 3,780 Climbing Los Angeles Center
09:47AM 33.0278 -117.5922 326° Northwest 358 412 20,500 3,360 Climbing Los Angeles Center
09:48AM 33.0894 -117.6936 306° West 370 426 23,600 2,940 Climbing Los Angeles Center
09:49AM 33.1572 -117.7986 308° West 390 449 26,600 2,760 Climbing Los Angeles Center
09:50AM 33.2092 -117.9161 298° West 395 455 29,300 2,340 Climbing Los Angeles Center
09:51AM 33.2508 -118.0456 291° West 409 471 31,400 2,340 Climbing Los Angeles Center
09:52AM 33.3161 -118.1592 305° West 413 475 34,100 2,160 Climbing Los Angeles Center
09:53AM 33.3936 -118.2628 312° West 415 478 35,900 1,620 Climbing Los Angeles Center
09:54AM 33.4719 -118.3683 312° West 418 481 37,500 1,020 Climbing Los Angeles Center
09:55AM 33.5539 -118.4775 312° West 428 493 38,000 660 Climbing Los Angeles Center
09:56AM 33.6356 -118.5872 312° West 433 498 38,900 840 Climbing Los Angeles Center
09:57AM 33.7181 -118.6969 312° West 436 502 39,800 480 Climbing Los Angeles Center
09:58AM 33.8169 -118.8289 312° West 439 505 40,000 60 Climbing Los Angeles Center
09:59AM 33.9119 -118.9247 320° Northwest 442 509 40,000  Level Los Angeles Center
10:00AM 34.0075 -119.0183 321° Northwest 440 506 40,000  Level Los Angeles Center
10:01AM 34.1014 -119.1119 320° Northwest 438 504 40,000  Level Los Angeles Center
10:02AM 34.1956 -119.2042 321° Northwest 436 502 40,000  Level Los Angeles Center
10:03AM 34.2894 -119.2950 321° Northwest 433 498 40,000  Level Los Angeles Center
10:04AM 34.3828 -119.3889 320° Northwest 435 501 40,000  Level Los Angeles Center
10:05AM 34.4764 -119.4808 321° Northwest 435 501 40,000  Level Los Angeles Center
10:06AM 34.5883 -119.5928 321° Northwest 436 502 40,000  Level Los Angeles Center
10:07AM 34.6750 -119.6772 321° Northwest 441 507 40,000  Level Los Angeles Center
10:08AM 34.7706 -119.7711 321° Northwest 442 509 40,000  Level Los Angeles Center
10:09AM 34.8653 -119.8669 320° Northwest 442 509 40,000  Level Los Angeles Center
10:10AM 34.9792 -119.9822 320° Northwest 444 511 40,000  Level Los Angeles Center
10:11AM 35.0756 -120.0783 321° Northwest 447 514 40,000  Level Los Angeles Center
10:12AM 35.1617 -120.1653 320° Northwest 449 517 40,000  Level Los Angeles Center
10:13AM 35.2567 -120.2617 320° Northwest 448 516 40,000  Level Los Angeles Center
10:14AM 35.3711 -120.3789 320° Northwest 450 518 40,000  Level Los Angeles Center
10:16AM 35.4639 -120.4744 320° Northwest 443 510 40,000  Level Los Angeles Center
10:17AM 35.5569 -120.5703 320° Northwest 441 507 40,000  Level Los Angeles Center
10:18AM 35.6519 -120.6692 320° Northwest 439 505 40,000 -360 Level Los Angeles Center
10:19AM 35.7456 -120.7650 320° Northwest 439 505 39,300 -1,380 Descending Los Angeles Center
10:20AM 35.8350 -120.8578 320° Northwest 428 493 37,200 -2,880 Descending Los Angeles Center
10:21AM 35.9475 -120.9731 320° Northwest 441 507 33,400 -3,180 Descending Los Angeles Center
10:22AM 36.0894 -121.1008 324° Northwest 448 516 29,600 -2,700 Descending Oakland Center
10:23AM 36.1889 -121.1858 325° Northwest 437 503 26,900 -2,580 Descending Oakland Center
10:24AM 36.2831 -121.2703 324° Northwest 420 483 24,400 -2,400 Descending Oakland Center
10:25AM 36.3739 -121.3486 325° Northwest 400 460 22,100 -2,700 Descending Oakland Center
10:26AM 36.4628 -121.4233 326° Northwest 389 448 18,900 -2,640 Descending Oakland Center
10:27AM 36.5628 -121.4625 343° North 378 435 16,700 -2,160 Descending Oakland Center
10:28AM 36.6619 -121.4842 350° North 365 420 14,600 -2,100 Descending Oakland Center
10:29AM 36.7542 -121.5067 349° North 344 396 12,500 -2,040 Descending Oakland Center
10:30AM 36.8381 -121.5536 336° Northwest 324 373 10,500 -1,680 Descending Oakland Center
10:31AM 36.9139 -121.5897 339° North 296 341 9,200 -1,440 Descending Oakland Center
10:32AM 36.9844 -121.6250 338° Northwest 278 320 7,600 -1,680 Descending Oakland Center
10:33AM 37.0547 -121.6617 337° Northwest 274 315 5,900 -1,380 Descending Oakland Center
10:34AM 37.1386 -121.7003 340° North 271 312 4,900 -900 Descending Oakland Center
10:35AM 37.1981 -121.7472 328° Northwest 264 304 4,100 -1,080 Descending Oakland Center
10:36AM 37.2456 -121.8036 317° Northwest 248 285 2,800 -1,140 Descending Oakland Center
10:37AM 37.2867 -121.8481 319° Northwest 218 251 1,800 -900 Descending Oakland Center
10:38AM 37.3206 -121.8831 321° Northwest 184 212 1,000 -780 Descending Oakland Center
10:39AM 37.3458 -121.9103 319° Northwest 148 170 300 -720 Descending Oakland Center
10:41AM 37.3500 -121.9167 North  Level FlightAware Approximate
10:48AM 37.3627 -121.9291 North  Level Estimated